sensor_id;sensor_type;location;lat;lon;timestamp;P1;durP1;ratioP1;P2;durP2;ratioP2
31978;SDS011;18502;43.574;1.276;2022-09-03T00:01:56;5.38;;;2.28;;
31978;SDS011;18502;43.574;1.276;2022-09-03T00:04:31;2.63;;;1.50;;
31978;SDS011;18502;43.574;1.276;2022-09-03T00:07:14;3.15;;;2.10;;
31978;SDS011;18502;43.574;1.276;2022-09-03T00:09:48;4.68;;;2.13;;
31978;SDS011;18502;43.574;1.276;2022-09-03T00:12:24;8.85;;;2.13;;
31978;SDS011;18502;43.574;1.276;2022-09-03T00:15:09;5.75;;;2.50;;
31978;SDS011;18502;43.574;1.276;2022-09-03T00:17:57;9.52;;;2.42;;
31978;SDS011;18502;43.574;1.276;2022-09-03T00:20:50;7.53;;;2.00;;
31978;SDS011;18502;43.574;1.276;2022-09-03T00:23:23;3.63;;;2.17;;
31978;SDS011;18502;43.574;1.276;2022-09-03T00:25:57;5.82;;;1.88;;
31978;SDS011;18502;43.574;1.276;2022-09-03T00:28:36;6.68;;;2.03;;
31978;SDS011;18502;43.574;1.276;2022-09-03T00:33:43;4.47;;;1.95;;
31978;SDS011;18502;43.574;1.276;2022-09-03T00:36:15;4.15;;;1.85;;
31978;SDS011;18502;43.574;1.276;2022-09-03T00:38:56;2.88;;;1.70;;
31978;SDS011;18502;43.574;1.276;2022-09-03T00:46:44;4.85;;;1.80;;
31978;SDS011;18502;43.574;1.276;2022-09-03T00:57:33;6.47;;;2.97;;
31978;SDS011;18502;43.574;1.276;2022-09-03T01:13:45;9.88;;;4.05;;
31978;SDS011;18502;43.574;1.276;2022-09-03T01:19:32;5.00;;;3.50;;
31978;SDS011;18502;43.574;1.276;2022-09-03T01:27:31;7.13;;;4.18;;
31978;SDS011;18502;43.574;1.276;2022-09-03T01:30:19;8.70;;;4.70;;
31978;SDS011;18502;43.574;1.276;2022-09-03T01:32:53;10.95;;;4.70;;
31978;SDS011;18502;43.574;1.276;2022-09-03T01:46:41;6.15;;;3.63;;
31978;SDS011;18502;43.574;1.276;2022-09-03T01:51:50;7.15;;;3.92;;
31978;SDS011;18502;43.574;1.276;2022-09-03T01:54:44;5.85;;;3.30;;
31978;SDS011;18502;43.574;1.276;2022-09-03T02:00:09;6.97;;;3.55;;
31978;SDS011;18502;43.574;1.276;2022-09-03T02:02:44;7.45;;;3.65;;
31978;SDS011;18502;43.574;1.276;2022-09-03T02:05:16;7.00;;;3.15;;
31978;SDS011;18502;43.574;1.276;2022-09-03T02:07:57;12.63;;;3.63;;
31978;SDS011;18502;43.574;1.276;2022-09-03T02:10:47;6.85;;;3.33;;
31978;SDS011;18502;43.574;1.276;2022-09-03T02:13:19;15.30;;;4.10;;
31978;SDS011;18502;43.574;1.276;2022-09-03T02:15:51;7.37;;;3.13;;
31978;SDS011;18502;43.574;1.276;2022-09-03T02:18:21;9.73;;;2.70;;
31978;SDS011;18502;43.574;1.276;2022-09-03T02:20:53;9.35;;;3.17;;
31978;SDS011;18502;43.574;1.276;2022-09-03T02:23:19;7.50;;;2.70;;
31978;SDS011;18502;43.574;1.276;2022-09-03T02:25:47;6.82;;;3.13;;
31978;SDS011;18502;43.574;1.276;2022-09-03T02:28:16;7.47;;;3.20;;
31978;SDS011;18502;43.574;1.276;2022-09-03T02:30:42;4.32;;;2.83;;
31978;SDS011;18502;43.574;1.276;2022-09-03T02:33:08;8.25;;;3.97;;
31978;SDS011;18502;43.574;1.276;2022-09-03T02:35:34;7.90;;;3.10;;
31978;SDS011;18502;43.574;1.276;2022-09-03T02:38:13;3.40;;;2.88;;
31978;SDS011;18502;43.574;1.276;2022-09-03T02:40:44;9.60;;;3.55;;
31978;SDS011;18502;43.574;1.276;2022-09-03T02:46:19;8.93;;;3.40;;
31978;SDS011;18502;43.574;1.276;2022-09-03T02:48:48;8.57;;;3.65;;
31978;SDS011;18502;43.574;1.276;2022-09-03T02:51:13;6.63;;;3.30;;
31978;SDS011;18502;43.574;1.276;2022-09-03T02:53:40;9.05;;;3.80;;
31978;SDS011;18502;43.574;1.276;2022-09-03T02:56:06;9.88;;;3.90;;
31978;SDS011;18502;43.574;1.276;2022-09-03T02:58:32;9.15;;;4.05;;
31978;SDS011;18502;43.574;1.276;2022-09-03T03:00:58;5.47;;;3.70;;
31978;SDS011;18502;43.574;1.276;2022-09-03T03:03:24;7.75;;;3.60;;
31978;SDS011;18502;43.574;1.276;2022-09-03T03:05:52;7.55;;;3.50;;
31978;SDS011;18502;43.574;1.276;2022-09-03T03:08:20;11.73;;;4.38;;
31978;SDS011;18502;43.574;1.276;2022-09-03T03:10:50;13.98;;;4.32;;
31978;SDS011;18502;43.574;1.276;2022-09-03T03:13:17;9.45;;;3.85;;
31978;SDS011;18502;43.574;1.276;2022-09-03T03:15:43;8.45;;;3.58;;
31978;SDS011;18502;43.574;1.276;2022-09-03T03:18:10;11.20;;;3.92;;
31978;SDS011;18502;43.574;1.276;2022-09-03T03:20:36;5.53;;;3.50;;
31978;SDS011;18502;43.574;1.276;2022-09-03T03:23:03;6.10;;;3.35;;
31978;SDS011;18502;43.574;1.276;2022-09-03T03:25:33;8.57;;;3.20;;
31978;SDS011;18502;43.574;1.276;2022-09-03T03:27:59;10.57;;;4.20;;
31978;SDS011;18502;43.574;1.276;2022-09-03T03:30:25;5.10;;;3.25;;
31978;SDS011;18502;43.574;1.276;2022-09-03T03:32:52;5.60;;;3.60;;
31978;SDS011;18502;43.574;1.276;2022-09-03T03:35:18;8.02;;;4.03;;
31978;SDS011;18502;43.574;1.276;2022-09-03T03:37:44;8.80;;;4.30;;
31978;SDS011;18502;43.574;1.276;2022-09-03T03:40:10;9.50;;;3.65;;
31978;SDS011;18502;43.574;1.276;2022-09-03T03:42:37;8.00;;;3.63;;
31978;SDS011;18502;43.574;1.276;2022-09-03T03:45:03;8.23;;;3.67;;
31978;SDS011;18502;43.574;1.276;2022-09-03T03:47:30;6.90;;;3.72;;
31978;SDS011;18502;43.574;1.276;2022-09-03T03:49:57;7.82;;;3.47;;
31978;SDS011;18502;43.574;1.276;2022-09-03T03:52:24;6.32;;;3.88;;
31978;SDS011;18502;43.574;1.276;2022-09-03T03:54:51;7.75;;;3.80;;
31978;SDS011;18502;43.574;1.276;2022-09-03T03:57:17;7.78;;;3.50;;
31978;SDS011;18502;43.574;1.276;2022-09-03T03:59:46;7.90;;;4.53;;
31978;SDS011;18502;43.574;1.276;2022-09-03T04:02:12;9.07;;;4.82;;
31978;SDS011;18502;43.574;1.276;2022-09-03T04:04:39;7.53;;;3.95;;
31978;SDS011;18502;43.574;1.276;2022-09-03T04:07:05;9.40;;;4.72;;
31978;SDS011;18502;43.574;1.276;2022-09-03T04:09:31;9.52;;;4.18;;
31978;SDS011;18502;43.574;1.276;2022-09-03T04:11:57;11.00;;;6.30;;
31978;SDS011;18502;43.574;1.276;2022-09-03T04:14:23;12.38;;;5.85;;
31978;SDS011;18502;43.574;1.276;2022-09-03T04:16:50;9.18;;;4.10;;
31978;SDS011;18502;43.574;1.276;2022-09-03T04:19:16;10.00;;;4.78;;
31978;SDS011;18502;43.574;1.276;2022-09-03T04:21:42;9.70;;;4.15;;
31978;SDS011;18502;43.574;1.276;2022-09-03T04:24:08;8.68;;;4.57;;
31978;SDS011;18502;43.574;1.276;2022-09-03T04:26:34;8.55;;;4.82;;
31978;SDS011;18502;43.574;1.276;2022-09-03T04:29:07;7.50;;;4.57;;
31978;SDS011;18502;43.574;1.276;2022-09-03T04:31:33;10.38;;;5.00;;
31978;SDS011;18502;43.574;1.276;2022-09-03T04:34:00;8.38;;;3.90;;
31978;SDS011;18502;43.574;1.276;2022-09-03T04:36:27;6.70;;;4.20;;
31978;SDS011;18502;43.574;1.276;2022-09-03T04:38:54;9.43;;;3.72;;
31978;SDS011;18502;43.574;1.276;2022-09-03T04:41:23;9.30;;;5.13;;
31978;SDS011;18502;43.574;1.276;2022-09-03T04:43:51;8.18;;;4.30;;
31978;SDS011;18502;43.574;1.276;2022-09-03T04:46:18;9.07;;;4.20;;
31978;SDS011;18502;43.574;1.276;2022-09-03T04:48:49;7.00;;;4.07;;
31978;SDS011;18502;43.574;1.276;2022-09-03T04:51:17;7.10;;;4.07;;
31978;SDS011;18502;43.574;1.276;2022-09-03T04:53:45;7.30;;;4.00;;
31978;SDS011;18502;43.574;1.276;2022-09-03T04:56:20;10.70;;;4.95;;
31978;SDS011;18502;43.574;1.276;2022-09-03T04:58:48;8.25;;;4.40;;
31978;SDS011;18502;43.574;1.276;2022-09-03T05:01:18;10.38;;;4.25;;
31978;SDS011;18502;43.574;1.276;2022-09-03T05:03:45;7.07;;;4.65;;
31978;SDS011;18502;43.574;1.276;2022-09-03T05:06:11;10.13;;;5.28;;
31978;SDS011;18502;43.574;1.276;2022-09-03T05:08:37;10.57;;;4.50;;
31978;SDS011;18502;43.574;1.276;2022-09-03T05:11:05;8.63;;;4.70;;
31978;SDS011;18502;43.574;1.276;2022-09-03T05:13:32;9.55;;;4.75;;
31978;SDS011;18502;43.574;1.276;2022-09-03T05:16:09;7.70;;;4.00;;
31978;SDS011;18502;43.574;1.276;2022-09-03T05:18:37;9.75;;;4.35;;
31978;SDS011;18502;43.574;1.276;2022-09-03T05:21:05;8.27;;;4.40;;
31978;SDS011;18502;43.574;1.276;2022-09-03T05:23:34;5.97;;;4.28;;
31978;SDS011;18502;43.574;1.276;2022-09-03T05:26:03;7.68;;;4.03;;
31978;SDS011;18502;43.574;1.276;2022-09-03T05:28:33;10.88;;;5.18;;
31978;SDS011;18502;43.574;1.276;2022-09-03T05:31:10;9.77;;;5.38;;
31978;SDS011;18502;43.574;1.276;2022-09-03T05:33:47;8.65;;;4.18;;
31978;SDS011;18502;43.574;1.276;2022-09-03T05:36:15;6.70;;;4.15;;
31978;SDS011;18502;43.574;1.276;2022-09-03T05:38:43;8.93;;;5.05;;
31978;SDS011;18502;43.574;1.276;2022-09-03T05:41:10;8.48;;;4.57;;
31978;SDS011;18502;43.574;1.276;2022-09-03T05:43:37;8.07;;;4.65;;
31978;SDS011;18502;43.574;1.276;2022-09-03T05:46:04;7.47;;;3.95;;
31978;SDS011;18502;43.574;1.276;2022-09-03T05:48:42;6.88;;;4.38;;
31978;SDS011;18502;43.574;1.276;2022-09-03T05:51:09;5.65;;;4.18;;
31978;SDS011;18502;43.574;1.276;2022-09-03T05:53:37;8.13;;;4.53;;
31978;SDS011;18502;43.574;1.276;2022-09-03T05:56:05;7.78;;;3.85;;
31978;SDS011;18502;43.574;1.276;2022-09-03T05:58:37;7.82;;;4.75;;
31978;SDS011;18502;43.574;1.276;2022-09-03T06:01:14;7.35;;;3.70;;
31978;SDS011;18502;43.574;1.276;2022-09-03T06:04:03;7.63;;;3.55;;
31978;SDS011;18502;43.574;1.276;2022-09-03T06:06:31;5.35;;;3.58;;
31978;SDS011;18502;43.574;1.276;2022-09-03T06:09:09;4.15;;;3.10;;
31978;SDS011;18502;43.574;1.276;2022-09-03T06:11:37;6.00;;;3.22;;
31978;SDS011;18502;43.574;1.276;2022-09-03T06:14:04;7.00;;;3.83;;
31978;SDS011;18502;43.574;1.276;2022-09-03T06:16:32;5.47;;;3.45;;
31978;SDS011;18502;43.574;1.276;2022-09-03T06:19:00;7.07;;;3.70;;
31978;SDS011;18502;43.574;1.276;2022-09-03T06:21:27;6.15;;;3.40;;
31978;SDS011;18502;43.574;1.276;2022-09-03T06:23:54;5.30;;;3.10;;
31978;SDS011;18502;43.574;1.276;2022-09-03T06:26:21;4.95;;;3.13;;
31978;SDS011;18502;43.574;1.276;2022-09-03T06:28:47;5.13;;;2.80;;
31978;SDS011;18502;43.574;1.276;2022-09-03T06:31:15;7.53;;;3.20;;
31978;SDS011;18502;43.574;1.276;2022-09-03T06:33:42;4.10;;;2.90;;
31978;SDS011;18502;43.574;1.276;2022-09-03T06:36:09;4.47;;;3.25;;
31978;SDS011;18502;43.574;1.276;2022-09-03T06:38:37;6.97;;;3.17;;
31978;SDS011;18502;43.574;1.276;2022-09-03T06:43:35;4.43;;;2.40;;
31978;SDS011;18502;43.574;1.276;2022-09-03T06:46:03;4.63;;;2.42;;
31978;SDS011;18502;43.574;1.276;2022-09-03T06:48:32;5.83;;;2.30;;
31978;SDS011;18502;43.574;1.276;2022-09-03T06:50:59;4.95;;;2.22;;
31978;SDS011;18502;43.574;1.276;2022-09-03T06:53:28;4.38;;;2.00;;
31978;SDS011;18502;43.574;1.276;2022-09-03T06:55:59;3.95;;;1.88;;
31978;SDS011;18502;43.574;1.276;2022-09-03T06:58:30;3.85;;;2.20;;
31978;SDS011;18502;43.574;1.276;2022-09-03T07:01:09;3.72;;;2.42;;
31978;SDS011;18502;43.574;1.276;2022-09-03T07:03:37;5.57;;;2.17;;
31978;SDS011;18502;43.574;1.276;2022-09-03T07:06:07;3.28;;;2.53;;
31978;SDS011;18502;43.574;1.276;2022-09-03T07:08:35;3.20;;;2.15;;
31978;SDS011;18502;43.574;1.276;2022-09-03T07:11:01;2.95;;;1.70;;
31978;SDS011;18502;43.574;1.276;2022-09-03T07:13:30;2.63;;;2.38;;
31978;SDS011;18502;43.574;1.276;2022-09-03T07:16:00;2.85;;;1.90;;
31978;SDS011;18502;43.574;1.276;2022-09-03T07:18:29;3.00;;;1.77;;
31978;SDS011;18502;43.574;1.276;2022-09-03T07:20:58;4.18;;;1.92;;
31978;SDS011;18502;43.574;1.276;2022-09-03T07:23:25;2.63;;;1.80;;
31978;SDS011;18502;43.574;1.276;2022-09-03T07:25:52;2.45;;;1.90;;
31978;SDS011;18502;43.574;1.276;2022-09-03T07:28:19;2.78;;;1.90;;
31978;SDS011;18502;43.574;1.276;2022-09-03T07:30:45;2.65;;;1.77;;
31978;SDS011;18502;43.574;1.276;2022-09-03T07:33:11;2.50;;;1.42;;
31978;SDS011;18502;43.574;1.276;2022-09-03T07:35:37;1.98;;;1.50;;
31978;SDS011;18502;43.574;1.276;2022-09-03T07:38:02;2.25;;;1.52;;
31978;SDS011;18502;43.574;1.276;2022-09-03T07:40:28;3.75;;;1.70;;
31978;SDS011;18502;43.574;1.276;2022-09-03T07:42:57;5.03;;;2.15;;
31978;SDS011;18502;43.574;1.276;2022-09-03T07:45:28;6.82;;;1.90;;
31978;SDS011;18502;43.574;1.276;2022-09-03T07:47:57;5.70;;;1.77;;
31978;SDS011;18502;43.574;1.276;2022-09-03T07:50:23;5.07;;;1.95;;
31978;SDS011;18502;43.574;1.276;2022-09-03T07:52:54;2.88;;;1.90;;
31978;SDS011;18502;43.574;1.276;2022-09-03T07:55:20;4.65;;;1.90;;
31978;SDS011;18502;43.574;1.276;2022-09-03T07:57:46;3.30;;;2.05;;
31978;SDS011;18502;43.574;1.276;2022-09-03T08:00:12;4.10;;;2.38;;
31978;SDS011;18502;43.574;1.276;2022-09-03T08:02:38;3.83;;;2.10;;
31978;SDS011;18502;43.574;1.276;2022-09-03T08:05:04;3.55;;;2.22;;
31978;SDS011;18502;43.574;1.276;2022-09-03T08:07:31;7.13;;;2.55;;
31978;SDS011;18502;43.574;1.276;2022-09-03T08:09:57;7.35;;;2.40;;
31978;SDS011;18502;43.574;1.276;2022-09-03T08:12:23;4.22;;;2.20;;
31978;SDS011;18502;43.574;1.276;2022-09-03T08:14:49;4.00;;;2.25;;
31978;SDS011;18502;43.574;1.276;2022-09-03T08:17:15;4.63;;;2.50;;
31978;SDS011;18502;43.574;1.276;2022-09-03T08:19:40;6.30;;;2.15;;
31978;SDS011;18502;43.574;1.276;2022-09-03T08:22:07;8.63;;;3.22;;
31978;SDS011;18502;43.574;1.276;2022-09-03T08:24:34;4.00;;;2.45;;
31978;SDS011;18502;43.574;1.276;2022-09-03T08:27:00;5.05;;;2.20;;
31978;SDS011;18502;43.574;1.276;2022-09-03T08:29:25;4.38;;;2.15;;
31978;SDS011;18502;43.574;1.276;2022-09-03T08:31:51;5.55;;;2.15;;
31978;SDS011;18502;43.574;1.276;2022-09-03T08:34:17;5.93;;;2.35;;
31978;SDS011;18502;43.574;1.276;2022-09-03T08:36:44;3.97;;;1.90;;
31978;SDS011;18502;43.574;1.276;2022-09-03T08:39:11;3.78;;;1.75;;
31978;SDS011;18502;43.574;1.276;2022-09-03T08:44:19;5.50;;;1.83;;
31978;SDS011;18502;43.574;1.276;2022-09-03T08:49:54;3.83;;;1.60;;
31978;SDS011;18502;43.574;1.276;2022-09-03T08:58:10;5.50;;;1.60;;
31978;SDS011;18502;43.574;1.276;2022-09-03T09:14:11;3.25;;;1.30;;
31978;SDS011;18502;43.574;1.276;2022-09-03T09:19:37;2.33;;;1.10;;
31978;SDS011;18502;43.574;1.276;2022-09-03T09:22:37;2.70;;;1.38;;
31978;SDS011;18502;43.574;1.276;2022-09-03T09:25:19;1.65;;;1.17;;
31978;SDS011;18502;43.574;1.276;2022-09-03T09:27:47;3.13;;;1.20;;
31978;SDS011;18502;43.574;1.276;2022-09-03T09:30:15;4.40;;;1.55;;
31978;SDS011;18502;43.574;1.276;2022-09-03T09:32:42;2.47;;;1.30;;
31978;SDS011;18502;43.574;1.276;2022-09-03T09:35:08;3.38;;;1.30;;
31978;SDS011;18502;43.574;1.276;2022-09-03T09:37:45;3.05;;;1.42;;
31978;SDS011;18502;43.574;1.276;2022-09-03T09:40:20;2.65;;;1.25;;
31978;SDS011;18502;43.574;1.276;2022-09-03T09:42:50;6.35;;;1.77;;
31978;SDS011;18502;43.574;1.276;2022-09-03T09:45:22;3.95;;;1.45;;
31978;SDS011;18502;43.574;1.276;2022-09-03T09:47:48;3.67;;;1.58;;
31978;SDS011;18502;43.574;1.276;2022-09-03T09:50:20;3.15;;;1.17;;
31978;SDS011;18502;43.574;1.276;2022-09-03T09:52:46;3.13;;;1.65;;
31978;SDS011;18502;43.574;1.276;2022-09-03T09:55:16;2.97;;;1.27;;
31978;SDS011;18502;43.574;1.276;2022-09-03T09:57:44;2.40;;;1.05;;
31978;SDS011;18502;43.574;1.276;2022-09-03T10:00:16;3.05;;;1.33;;
31978;SDS011;18502;43.574;1.276;2022-09-03T10:02:47;3.33;;;1.30;;
31978;SDS011;18502;43.574;1.276;2022-09-03T10:05:19;2.88;;;1.00;;
31978;SDS011;18502;43.574;1.276;2022-09-03T10:07:58;3.20;;;1.10;;
31978;SDS011;18502;43.574;1.276;2022-09-03T10:10:25;3.80;;;1.50;;
31978;SDS011;18502;43.574;1.276;2022-09-03T10:16:02;3.08;;;1.58;;
31978;SDS011;18502;43.574;1.276;2022-09-03T10:21:23;3.42;;;1.30;;
31978;SDS011;18502;43.574;1.276;2022-09-03T10:24:29;3.67;;;1.20;;
31978;SDS011;18502;43.574;1.276;2022-09-03T10:27:16;2.28;;;1.55;;
31978;SDS011;18502;43.574;1.276;2022-09-03T10:29:43;4.25;;;1.70;;
31978;SDS011;18502;43.574;1.276;2022-09-03T10:37:36;3.10;;;1.25;;
31978;SDS011;18502;43.574;1.276;2022-09-03T10:42:44;3.80;;;1.60;;
31978;SDS011;18502;43.574;1.276;2022-09-03T10:56:12;2.30;;;1.25;;
31978;SDS011;18502;43.574;1.276;2022-09-03T10:59:00;3.88;;;1.60;;
31978;SDS011;18502;43.574;1.276;2022-09-03T11:04:51;2.97;;;1.37;;
31978;SDS011;18502;43.574;1.276;2022-09-03T11:07:16;2.40;;;1.20;;
31978;SDS011;18502;43.574;1.276;2022-09-03T11:09:53;1.23;;;1.10;;
31978;SDS011;18502;43.574;1.276;2022-09-03T11:12:39;3.20;;;1.40;;
31978;SDS011;18502;43.574;1.276;2022-09-03T11:17:53;2.20;;;1.50;;
31978;SDS011;18502;43.574;1.276;2022-09-03T11:20:37;2.28;;;1.27;;
31978;SDS011;18502;43.574;1.276;2022-09-03T11:23:04;5.03;;;1.45;;
31978;SDS011;18502;43.574;1.276;2022-09-03T11:25:38;2.30;;;1.58;;
31978;SDS011;18502;43.574;1.276;2022-09-03T11:31:30;1.75;;;1.30;;
31978;SDS011;18502;43.574;1.276;2022-09-03T11:33:49;3.83;;;1.38;;
31978;SDS011;18502;43.574;1.276;2022-09-03T11:36:27;2.67;;;1.30;;
31978;SDS011;18502;43.574;1.276;2022-09-03T11:38:58;2.80;;;1.08;;
31978;SDS011;18502;43.574;1.276;2022-09-03T11:44:09;4.70;;;1.35;;
31978;SDS011;18502;43.574;1.276;2022-09-03T11:46:41;1.67;;;1.33;;
31978;SDS011;18502;43.574;1.276;2022-09-03T11:49:27;5.57;;;1.50;;
31978;SDS011;18502;43.574;1.276;2022-09-03T11:51:58;3.42;;;1.48;;
31978;SDS011;18502;43.574;1.276;2022-09-03T11:54:26;3.47;;;1.55;;
31978;SDS011;18502;43.574;1.276;2022-09-03T11:57:05;2.63;;;1.55;;
31978;SDS011;18502;43.574;1.276;2022-09-03T11:59:40;3.80;;;2.03;;
31978;SDS011;18502;43.574;1.276;2022-09-03T12:12:59;2.65;;;1.60;;
31978;SDS011;18502;43.574;1.276;2022-09-03T12:18:41;5.40;;;2.00;;
31978;SDS011;18502;43.574;1.276;2022-09-03T12:21:08;2.08;;;1.65;;
31978;SDS011;18502;43.574;1.276;2022-09-03T12:23:43;2.22;;;1.35;;
31978;SDS011;18502;43.574;1.276;2022-09-03T12:26:13;4.15;;;1.95;;
31978;SDS011;18502;43.574;1.276;2022-09-03T12:28:45;3.67;;;2.15;;
31978;SDS011;18502;43.574;1.276;2022-09-03T12:33:51;4.00;;;2.13;;
31978;SDS011;18502;43.574;1.276;2022-09-03T12:36:34;3.90;;;1.88;;
31978;SDS011;18502;43.574;1.276;2022-09-03T12:39:12;3.58;;;2.10;;
31978;SDS011;18502;43.574;1.276;2022-09-03T12:47:10;2.75;;;2.35;;
31978;SDS011;18502;43.574;1.276;2022-09-03T12:49:39;2.15;;;2.00;;
31978;SDS011;18502;43.574;1.276;2022-09-03T12:52:27;2.58;;;1.83;;
31978;SDS011;18502;43.574;1.276;2022-09-03T12:55:07;3.30;;;1.70;;
31978;SDS011;18502;43.574;1.276;2022-09-03T12:57:42;2.85;;;1.90;;
31978;SDS011;18502;43.574;1.276;2022-09-03T13:00:13;3.63;;;1.77;;
31978;SDS011;18502;43.574;1.276;2022-09-03T13:02:45;3.75;;;1.85;;
31978;SDS011;18502;43.574;1.276;2022-09-03T13:05:23;3.33;;;1.63;;
31978;SDS011;18502;43.574;1.276;2022-09-03T13:08:00;2.88;;;1.60;;
31978;SDS011;18502;43.574;1.276;2022-09-03T13:10:32;2.70;;;1.60;;
31978;SDS011;18502;43.574;1.276;2022-09-03T13:13:27;2.53;;;1.63;;
31978;SDS011;18502;43.574;1.276;2022-09-03T13:21:30;3.50;;;1.50;;
31978;SDS011;18502;43.574;1.276;2022-09-03T13:27:01;2.13;;;1.80;;
31978;SDS011;18502;43.574;1.276;2022-09-03T13:32:19;3.50;;;1.58;;
31978;SDS011;18502;43.574;1.276;2022-09-03T13:35:26;2.63;;;1.70;;
31978;SDS011;18502;43.574;1.276;2022-09-03T13:43:24;3.42;;;1.67;;
31978;SDS011;18502;43.574;1.276;2022-09-03T13:48:48;4.50;;;1.80;;
31978;SDS011;18502;43.574;1.276;2022-09-03T13:51:48;1.98;;;1.77;;
31978;SDS011;18502;43.574;1.276;2022-09-03T13:54:22;2.63;;;1.45;;
31978;SDS011;18502;43.574;1.276;2022-09-03T13:57:00;2.20;;;1.70;;
31978;SDS011;18502;43.574;1.276;2022-09-03T13:59:48;2.67;;;1.70;;
31978;SDS011;18502;43.574;1.276;2022-09-03T14:08:04;2.33;;;1.52;;
31978;SDS011;18502;43.574;1.276;2022-09-03T14:13:17;1.83;;;1.60;;
31978;SDS011;18502;43.574;1.276;2022-09-03T14:19:14;2.20;;;1.77;;
31978;SDS011;18502;43.574;1.276;2022-09-03T14:21:56;2.45;;;1.67;;
31978;SDS011;18502;43.574;1.276;2022-09-03T14:24:27;4.05;;;2.22;;
31978;SDS011;18502;43.574;1.276;2022-09-03T14:27:09;4.55;;;2.05;;
31978;SDS011;18502;43.574;1.276;2022-09-03T14:29:35;1.70;;;1.60;;
31978;SDS011;18502;43.574;1.276;2022-09-03T14:32:17;2.55;;;1.80;;
31978;SDS011;18502;43.574;1.276;2022-09-03T14:37:49;2.50;;;1.65;;
31978;SDS011;18502;43.574;1.276;2022-09-03T14:43:26;2.70;;;1.50;;
31978;SDS011;18502;43.574;1.276;2022-09-03T14:59:26;2.42;;;1.90;;
31978;SDS011;18502;43.574;1.276;2022-09-03T15:04:44;2.88;;;1.67;;
31978;SDS011;18502;43.574;1.276;2022-09-03T15:10:17;3.38;;;1.92;;
31978;SDS011;18502;43.574;1.276;2022-09-03T15:13:06;1.73;;;1.60;;
31978;SDS011;18502;43.574;1.276;2022-09-03T15:18:20;1.77;;;1.63;;
31978;SDS011;18502;43.574;1.276;2022-09-03T15:20:53;2.10;;;1.58;;
31978;SDS011;18502;43.574;1.276;2022-09-03T15:36:48;1.63;;;1.42;;
31978;SDS011;18502;43.574;1.276;2022-09-03T15:39:22;1.70;;;1.60;;
31978;SDS011;18502;43.574;1.276;2022-09-03T15:41:58;2.53;;;1.30;;
31978;SDS011;18502;43.574;1.276;2022-09-03T15:44:26;1.92;;;1.70;;
31978;SDS011;18502;43.574;1.276;2022-09-03T15:47:04;1.75;;;1.08;;
31978;SDS011;18502;43.574;1.276;2022-09-03T15:54:47;4.00;;;2.05;;
31978;SDS011;18502;43.574;1.276;2022-09-03T15:57:25;2.58;;;1.38;;
31978;SDS011;18502;43.574;1.276;2022-09-03T16:00:01;3.15;;;1.90;;
31978;SDS011;18502;43.574;1.276;2022-09-03T16:05:45;3.40;;;1.90;;
31978;SDS011;18502;43.574;1.276;2022-09-03T16:08:21;5.30;;;2.00;;
31978;SDS011;18502;43.574;1.276;2022-09-03T16:13:44;2.88;;;1.48;;
31978;SDS011;18502;43.574;1.276;2022-09-03T16:17:18;2.67;;;1.55;;
31978;SDS011;18502;43.574;1.276;2022-09-03T16:19:20;2.38;;;1.63;;
31978;SDS011;18502;43.574;1.276;2022-09-03T16:22:30;1.67;;;1.58;;
31978;SDS011;18502;43.574;1.276;2022-09-03T16:27:39;1.60;;;1.20;;
31978;SDS011;18502;43.574;1.276;2022-09-03T16:49:50;2.78;;;1.33;;
31978;SDS011;18502;43.574;1.276;2022-09-03T16:55:20;1.75;;;1.33;;
31978;SDS011;18502;43.574;1.276;2022-09-03T16:58:37;1.77;;;1.50;;
31978;SDS011;18502;43.574;1.276;2022-09-03T17:07:12;1.90;;;1.70;;
31978;SDS011;18502;43.574;1.276;2022-09-03T17:15:43;2.53;;;1.33;;
31978;SDS011;18502;43.574;1.276;2022-09-03T17:24:03;3.65;;;1.52;;
31978;SDS011;18502;43.574;1.276;2022-09-03T17:26:56;1.97;;;1.47;;
31978;SDS011;18502;43.574;1.276;2022-09-03T17:38:02;2.38;;;1.95;;
31978;SDS011;18502;43.574;1.276;2022-09-03T17:48:59;3.58;;;2.00;;
31978;SDS011;18502;43.574;1.276;2022-09-03T17:57:02;2.50;;;1.77;;
31978;SDS011;18502;43.574;1.276;2022-09-03T18:02:32;2.38;;;1.70;;
31978;SDS011;18502;43.574;1.276;2022-09-03T18:08:02;1.58;;;1.48;;
31978;SDS011;18502;43.574;1.276;2022-09-03T18:10:49;3.60;;;1.80;;
31978;SDS011;18502;43.574;1.276;2022-09-03T18:13:34;2.70;;;1.70;;
31978;SDS011;18502;43.574;1.276;2022-09-03T18:16:32;3.20;;;1.80;;
31978;SDS011;18502;43.574;1.276;2022-09-03T18:21:56;3.80;;;2.08;;
31978;SDS011;18502;43.574;1.276;2022-09-03T18:24:50;2.45;;;1.73;;
31978;SDS011;18502;43.574;1.276;2022-09-03T18:27:45;3.30;;;1.90;;
31978;SDS011;18502;43.574;1.276;2022-09-03T18:30:33;4.75;;;1.73;;
31978;SDS011;18502;43.574;1.276;2022-09-03T18:33:24;3.20;;;2.05;;
31978;SDS011;18502;43.574;1.276;2022-09-03T18:36:09;4.30;;;2.28;;
31978;SDS011;18502;43.574;1.276;2022-09-03T18:39:01;3.85;;;2.28;;
31978;SDS011;18502;43.574;1.276;2022-09-03T18:42:16;1.98;;;1.83;;
31978;SDS011;18502;43.574;1.276;2022-09-03T18:57:17;3.75;;;2.53;;
31978;SDS011;18502;43.574;1.276;2022-09-03T19:00:09;3.80;;;2.53;;
31978;SDS011;18502;43.574;1.276;2022-09-03T19:06:15;6.38;;;2.53;;
31978;SDS011;18502;43.574;1.276;2022-09-03T19:09:16;5.68;;;2.53;;
31978;SDS011;18502;43.574;1.276;2022-09-03T19:15:20;4.60;;;2.42;;
31978;SDS011;18502;43.574;1.276;2022-09-03T19:21:48;4.45;;;2.05;;
31978;SDS011;18502;43.574;1.276;2022-09-03T19:24:37;7.32;;;3.40;;
31978;SDS011;18502;43.574;1.276;2022-09-03T19:27:34;6.00;;;4.13;;
31978;SDS011;18502;43.574;1.276;2022-09-03T19:37:03;6.30;;;4.10;;
31978;SDS011;18502;43.574;1.276;2022-09-03T19:43:05;6.93;;;4.65;;
31978;SDS011;18502;43.574;1.276;2022-09-03T19:52:01;6.10;;;4.13;;
31978;SDS011;18502;43.574;1.276;2022-09-03T19:54:54;5.10;;;3.58;;
31978;SDS011;18502;43.574;1.276;2022-09-03T19:57:41;4.72;;;3.40;;
31978;SDS011;18502;43.574;1.276;2022-09-03T20:00:28;6.43;;;3.35;;
31978;SDS011;18502;43.574;1.276;2022-09-03T20:03:15;5.95;;;3.47;;
31978;SDS011;18502;43.574;1.276;2022-09-03T20:06:02;8.23;;;3.50;;
31978;SDS011;18502;43.574;1.276;2022-09-03T20:08:49;18.55;;;4.10;;
31978;SDS011;18502;43.574;1.276;2022-09-03T20:11:35;7.97;;;3.35;;
31978;SDS011;18502;43.574;1.276;2022-09-03T20:14:03;11.18;;;3.67;;
31978;SDS011;18502;43.574;1.276;2022-09-03T20:17:11;7.07;;;3.17;;
31978;SDS011;18502;43.574;1.276;2022-09-03T20:19:59;7.05;;;3.80;;
31978;SDS011;18502;43.574;1.276;2022-09-03T20:25:35;8.43;;;4.55;;
31978;SDS011;18502;43.574;1.276;2022-09-03T20:28:49;8.65;;;5.00;;
31978;SDS011;18502;43.574;1.276;2022-09-03T20:36:33;7.90;;;6.13;;
31978;SDS011;18502;43.574;1.276;2022-09-03T20:50:45;13.50;;;6.00;;
31978;SDS011;18502;43.574;1.276;2022-09-03T20:55:59;8.80;;;5.28;;
31978;SDS011;18502;43.574;1.276;2022-09-03T20:58:37;7.90;;;6.00;;
31978;SDS011;18502;43.574;1.276;2022-09-03T21:01:24;6.93;;;5.90;;
31978;SDS011;18502;43.574;1.276;2022-09-03T21:04:16;7.28;;;5.03;;
31978;SDS011;18502;43.574;1.276;2022-09-03T21:12:20;5.85;;;4.45;;
31978;SDS011;18502;43.574;1.276;2022-09-03T21:15:10;5.25;;;3.80;;
31978;SDS011;18502;43.574;1.276;2022-09-03T21:23:37;5.68;;;3.92;;
31978;SDS011;18502;43.574;1.276;2022-09-03T21:26:18;5.32;;;4.05;;
31978;SDS011;18502;43.574;1.276;2022-09-03T21:28:53;6.63;;;4.07;;
31978;SDS011;18502;43.574;1.276;2022-09-03T21:31:47;4.63;;;3.53;;
31978;SDS011;18502;43.574;1.276;2022-09-03T21:34:21;4.30;;;3.40;;
31978;SDS011;18502;43.574;1.276;2022-09-03T21:37:11;8.30;;;3.72;;
31978;SDS011;18502;43.574;1.276;2022-09-03T21:44:50;9.38;;;5.00;;
31978;SDS011;18502;43.574;1.276;2022-09-03T21:47:23;6.00;;;4.32;;
31978;SDS011;18502;43.574;1.276;2022-09-03T22:00:24;4.80;;;4.22;;
31978;SDS011;18502;43.574;1.276;2022-09-03T22:02:56;6.35;;;4.40;;